sensor_id;sensor_type;location;lat;lon;timestamp;pressure;altitude;pressure_sealevel;temperature;humidity
10852;BME280;5479;52.046;6.314;2022-10-31T00:01:35;101973.84;;;13.16;100.00
10852;BME280;5479;52.046;6.314;2022-10-31T00:04:06;101959.03;;;13.11;100.00
10852;BME280;5479;52.046;6.314;2022-10-31T00:06:34;101963.53;;;13.10;100.00
10852;BME280;5479;52.046;6.314;2022-10-31T00:09:04;101970.72;;;13.08;100.00
10852;BME280;5479;52.046;6.314;2022-10-31T00:11:32;101963.81;;;13.04;100.00
10852;BME280;5479;52.046;6.314;2022-10-31T00:14:00;101971.56;;;13.09;100.00
10852;BME280;5479;52.046;6.314;2022-10-31T00:16:29;101969.00;;;13.07;100.00
10852;BME280;5479;52.046;6.314;2022-10-31T00:18:58;101967.53;;;13.00;100.00
10852;BME280;5479;52.046;6.314;2022-10-31T00:21:27;101966.91;;;12.95;100.00
10852;BME280;5479;52.046;6.314;2022-10-31T00:23:56;101975.03;;;12.92;100.00
10852;BME280;5479;52.046;6.314;2022-10-31T00:26:26;101978.66;;;12.91;100.00
10852;BME280;5479;52.046;6.314;2022-10-31T00:28:54;101980.06;;;12.81;100.00
10852;BME280;5479;52.046;6.314;2022-10-31T00:31:22;101990.22;;;12.73;100.00
10852;BME280;5479;52.046;6.314;2022-10-31T00:33:50;101999.25;;;12.69;100.00
10852;BME280;5479;52.046;6.314;2022-10-31T00:36:19;101986.13;;;12.66;100.00
10852;BME280;5479;52.046;6.314;2022-10-31T00:38:47;101987.06;;;12.65;100.00
10852;BME280;5479;52.046;6.314;2022-10-31T00:41:16;101985.44;;;12.62;100.00
10852;BME280;5479;52.046;6.314;2022-10-31T00:43:46;101990.81;;;12.61;100.00
10852;BME280;5479;52.046;6.314;2022-10-31T00:46:14;101973.78;;;12.65;100.00
10852;BME280;5479;52.046;6.314;2022-10-31T00:48:42;101977.66;;;12.58;100.00
10852;BME280;5479;52.046;6.314;2022-10-31T00:51:10;101983.44;;;12.49;100.00
10852;BME280;5479;52.046;6.314;2022-10-31T00:53:39;101974.13;;;12.40;100.00
10852;BME280;5479;52.046;6.314;2022-10-31T00:56:09;101985.47;;;12.44;100.00
10852;BME280;5479;52.046;6.314;2022-10-31T00:58:37;101983.25;;;12.35;100.00
10852;BME280;5479;52.046;6.314;2022-10-31T01:01:07;101993.28;;;12.28;100.00
10852;BME280;5479;52.046;6.314;2022-10-31T01:03:35;101984.81;;;12.20;100.00
10852;BME280;5479;52.046;6.314;2022-10-31T01:06:07;101985.81;;;12.18;100.00
10852;BME280;5479;52.046;6.314;2022-10-31T01:08:36;101982.53;;;12.13;100.00
10852;BME280;5479;52.046;6.314;2022-10-31T01:11:07;101992.22;;;12.14;100.00
10852;BME280;5479;52.046;6.314;2022-10-31T01:13:36;101986.91;;;12.14;100.00
10852;BME280;5479;52.046;6.314;2022-10-31T01:16:08;101988.09;;;12.06;100.00
10852;BME280;5479;52.046;6.314;2022-10-31T01:18:38;101982.25;;;12.00;100.00
10852;BME280;5479;52.046;6.314;2022-10-31T01:21:08;101995.44;;;12.01;100.00
10852;BME280;5479;52.046;6.314;2022-10-31T01:23:36;101989.19;;;12.02;100.00
10852;BME280;5479;52.046;6.314;2022-10-31T01:26:07;101975.78;;;12.05;100.00
10852;BME280;5479;52.046;6.314;2022-10-31T01:28:37;101979.50;;;12.01;100.00
10852;BME280;5479;52.046;6.314;2022-10-31T01:31:09;101982.59;;;11.92;100.00
10852;BME280;5479;52.046;6.314;2022-10-31T01:33:38;101979.09;;;11.92;100.00
10852;BME280;5479;52.046;6.314;2022-10-31T01:36:14;101985.25;;;11.92;100.00
10852;BME280;5479;52.046;6.314;2022-10-31T01:38:43;101985.53;;;11.86;100.00
10852;BME280;5479;52.046;6.314;2022-10-31T01:41:12;101988.41;;;11.82;100.00
10852;BME280;5479;52.046;6.314;2022-10-31T01:43:45;101989.91;;;11.87;100.00
10852;BME280;5479;52.046;6.314;2022-10-31T01:46:17;101987.28;;;11.87;100.00
10852;BME280;5479;52.046;6.314;2022-10-31T01:48:47;101990.09;;;11.83;100.00
10852;BME280;5479;52.046;6.314;2022-10-31T01:51:16;101989.28;;;11.82;100.00
10852;BME280;5479;52.046;6.314;2022-10-31T01:53:45;101997.28;;;11.81;100.00
10852;BME280;5479;52.046;6.314;2022-10-31T01:56:15;101996.72;;;11.74;100.00
10852;BME280;5479;52.046;6.314;2022-10-31T01:58:45;102002.81;;;11.76;100.00
10852;BME280;5479;52.046;6.314;2022-10-31T02:01:16;101994.84;;;11.76;100.00
10852;BME280;5479;52.046;6.314;2022-10-31T02:03:45;101993.34;;;11.71;100.00
10852;BME280;5479;52.046;6.314;2022-10-31T02:06:21;101976.63;;;11.69;100.00
10852;BME280;5479;52.046;6.314;2022-10-31T02:08:57;101973.88;;;11.70;100.00
10852;BME280;5479;52.046;6.314;2022-10-31T02:11:27;101975.63;;;11.71;100.00
10852;BME280;5479;52.046;6.314;2022-10-31T02:13:57;101974.94;;;11.66;100.00
10852;BME280;5479;52.046;6.314;2022-10-31T02:16:27;101970.78;;;11.61;100.00
10852;BME280;5479;52.046;6.314;2022-10-31T02:18:55;101975.84;;;11.65;100.00
10852;BME280;5479;52.046;6.314;2022-10-31T02:21:31;101973.34;;;11.62;100.00
10852;BME280;5479;52.046;6.314;2022-10-31T02:27:18;101986.03;;;11.56;100.00
10852;BME280;5479;52.046;6.314;2022-10-31T02:30:07;101983.44;;;11.54;100.00
10852;BME280;5479;52.046;6.314;2022-10-31T02:32:47;101988.59;;;11.57;100.00
10852;BME280;5479;52.046;6.314;2022-10-31T02:35:27;101988.38;;;11.62;100.00
10852;BME280;5479;52.046;6.314;2022-10-31T02:38:06;101984.88;;;11.61;100.00
10852;BME280;5479;52.046;6.314;2022-10-31T02:40:40;101988.34;;;11.63;100.00
10852;BME280;5479;52.046;6.314;2022-10-31T02:43:18;101984.72;;;11.64;100.00
10852;BME280;5479;52.046;6.314;2022-10-31T02:45:53;101989.03;;;11.67;100.00
10852;BME280;5479;52.046;6.314;2022-10-31T02:48:28;101979.19;;;11.70;100.00
10852;BME280;5479;52.046;6.314;2022-10-31T02:50:58;101980.78;;;11.74;100.00
10852;BME280;5479;52.046;6.314;2022-10-31T02:53:31;101980.63;;;11.77;100.00
10852;BME280;5479;52.046;6.314;2022-10-31T02:56:02;101982.22;;;11.81;100.00
10852;BME280;5479;52.046;6.314;2022-10-31T02:58:34;101981.22;;;11.84;100.00
10852;BME280;5479;52.046;6.314;2022-10-31T03:01:20;101978.50;;;11.85;100.00
10852;BME280;5479;52.046;6.314;2022-10-31T03:04:06;101981.81;;;11.90;100.00
10852;BME280;5479;52.046;6.314;2022-10-31T03:06:45;101979.81;;;11.95;100.00
10852;BME280;5479;52.046;6.314;2022-10-31T03:09:21;101976.22;;;11.96;100.00
10852;BME280;5479;52.046;6.314;2022-10-31T03:11:57;101983.38;;;11.94;100.00
10852;BME280;5479;52.046;6.314;2022-10-31T03:14:31;101976.50;;;11.90;100.00
10852;BME280;5479;52.046;6.314;2022-10-31T03:17:04;101980.09;;;11.89;100.00
10852;BME280;5479;52.046;6.314;2022-10-31T03:19:39;101978.78;;;11.79;100.00
10852;BME280;5479;52.046;6.314;2022-10-31T03:22:15;101972.47;;;11.82;100.00
10852;BME280;5479;52.046;6.314;2022-10-31T03:24:45;101971.88;;;11.75;100.00
10852;BME280;5479;52.046;6.314;2022-10-31T03:27:17;101970.41;;;11.68;100.00
10852;BME280;5479;52.046;6.314;2022-10-31T03:29:47;101974.69;;;11.52;100.00
10852;BME280;5479;52.046;6.314;2022-10-31T03:32:20;101972.56;;;11.40;100.00
10852;BME280;5479;52.046;6.314;2022-10-31T03:34:55;101975.63;;;11.31;100.00
10852;BME280;5479;52.046;6.314;2022-10-31T03:37:25;101978.63;;;11.23;100.00
10852;BME280;5479;52.046;6.314;2022-10-31T03:39:55;101970.97;;;11.16;100.00
10852;BME280;5479;52.046;6.314;2022-10-31T03:42:29;101979.34;;;11.07;100.00
10852;BME280;5479;52.046;6.314;2022-10-31T03:45:00;101980.66;;;10.97;100.00
10852;BME280;5479;52.046;6.314;2022-10-31T03:47:30;101973.00;;;10.89;100.00
10852;BME280;5479;52.046;6.314;2022-10-31T03:50:00;101975.88;;;10.84;100.00
10852;BME280;5479;52.046;6.314;2022-10-31T03:52:31;101970.69;;;10.81;100.00
10852;BME280;5479;52.046;6.314;2022-10-31T03:55:06;101983.22;;;10.78;100.00
10852;BME280;5479;52.046;6.314;2022-10-31T03:57:39;101977.22;;;10.73;100.00
10852;BME280;5479;52.046;6.314;2022-10-31T04:00:10;101988.09;;;10.67;100.00
10852;BME280;5479;52.046;6.314;2022-10-31T04:02:42;101980.31;;;10.62;100.00
10852;BME280;5479;52.046;6.314;2022-10-31T04:05:15;101982.41;;;10.54;100.00
10852;BME280;5479;52.046;6.314;2022-10-31T04:07:47;101980.69;;;10.53;100.00
10852;BME280;5479;52.046;6.314;2022-10-31T04:10:18;101989.56;;;10.52;100.00
10852;BME280;5479;52.046;6.314;2022-10-31T04:12:52;101988.69;;;10.52;100.00
10852;BME280;5479;52.046;6.314;2022-10-31T04:15:23;101984.25;;;10.52;100.00
10852;BME280;5479;52.046;6.314;2022-10-31T04:17:53;101989.69;;;10.49;100.00
10852;BME280;5479;52.046;6.314;2022-10-31T04:20:31;101980.16;;;10.45;100.00
10852;BME280;5479;52.046;6.314;2022-10-31T04:23:00;101990.22;;;10.36;100.00
10852;BME280;5479;52.046;6.314;2022-10-31T04:25:28;101985.13;;;10.31;100.00
10852;BME280;5479;52.046;6.314;2022-10-31T04:27:56;101981.69;;;10.29;100.00
10852;BME280;5479;52.046;6.314;2022-10-31T04:30:24;101981.78;;;10.26;100.00
10852;BME280;5479;52.046;6.314;2022-10-31T04:32:52;101978.69;;;10.15;100.00
10852;BME280;5479;52.046;6.314;2022-10-31T04:35:20;101980.63;;;10.10;100.00
10852;BME280;5479;52.046;6.314;2022-10-31T04:37:49;101985.06;;;10.09;100.00
10852;BME280;5479;52.046;6.314;2022-10-31T04:40:17;101984.88;;;10.15;100.00
10852;BME280;5479;52.046;6.314;2022-10-31T04:42:45;101986.66;;;10.15;100.00
10852;BME280;5479;52.046;6.314;2022-10-31T04:45:13;101990.34;;;10.09;100.00
10852;BME280;5479;52.046;6.314;2022-10-31T04:47:40;101994.22;;;10.01;100.00
10852;BME280;5479;52.046;6.314;2022-10-31T04:50:08;101992.72;;;9.94;100.00
10852;BME280;5479;52.046;6.314;2022-10-31T04:52:38;101988.59;;;9.87;100.00
10852;BME280;5479;52.046;6.314;2022-10-31T04:55:09;101984.91;;;9.91;100.00
10852;BME280;5479;52.046;6.314;2022-10-31T04:57:40;101984.78;;;9.94;100.00
10852;BME280;5479;52.046;6.314;2022-10-31T05:00:09;101985.88;;;9.88;100.00
10852;BME280;5479;52.046;6.314;2022-10-31T05:02:43;101985.13;;;9.85;100.00
10852;BME280;5479;52.046;6.314;2022-10-31T05:05:12;101993.19;;;9.82;100.00
10852;BME280;5479;52.046;6.314;2022-10-31T05:07:40;101983.69;;;9.76;100.00
10852;BME280;5479;52.046;6.314;2022-10-31T05:10:10;101978.44;;;9.75;100.00
10852;BME280;5479;52.046;6.314;2022-10-31T05:12:45;101977.31;;;9.82;100.00
10852;BME280;5479;52.046;6.314;2022-10-31T05:15:14;101978.00;;;9.87;100.00
10852;BME280;5479;52.046;6.314;2022-10-31T05:17:42;101987.66;;;9.88;100.00
10852;BME280;5479;52.046;6.314;2022-10-31T05:20:11;101976.50;;;9.80;100.00
10852;BME280;5479;52.046;6.314;2022-10-31T05:22:42;101971.09;;;9.83;100.00
10852;BME280;5479;52.046;6.314;2022-10-31T05:25:12;101962.47;;;9.78;100.00
10852;BME280;5479;52.046;6.314;2022-10-31T05:27:41;101960.97;;;9.70;100.00
10852;BME280;5479;52.046;6.314;2022-10-31T05:30:10;101956.94;;;9.60;100.00
10852;BME280;5479;52.046;6.314;2022-10-31T05:32:39;101963.16;;;9.59;100.00
10852;BME280;5479;52.046;6.314;2022-10-31T05:35:08;101962.97;;;9.64;100.00
10852;BME280;5479;52.046;6.314;2022-10-31T05:37:36;101959.47;;;9.63;100.00
10852;BME280;5479;52.046;6.314;2022-10-31T05:40:06;101955.13;;;9.62;100.00
10852;BME280;5479;52.046;6.314;2022-10-31T05:42:38;101960.34;;;9.64;100.00
10852;BME280;5479;52.046;6.314;2022-10-31T05:45:08;101957.66;;;9.65;100.00
10852;BME280;5479;52.046;6.314;2022-10-31T05:47:37;101956.88;;;9.62;100.00
10852;BME280;5479;52.046;6.314;2022-10-31T05:50:06;101962.34;;;9.57;100.00
10852;BME280;5479;52.046;6.314;2022-10-31T05:52:35;101963.25;;;9.56;100.00
10852;BME280;5479;52.046;6.314;2022-10-31T05:55:02;101968.66;;;9.53;100.00
10852;BME280;5479;52.046;6.314;2022-10-31T05:57:32;101961.00;;;9.46;100.00
10852;BME280;5479;52.046;6.314;2022-10-31T06:00:03;101968.97;;;9.44;100.00
10852;BME280;5479;52.046;6.314;2022-10-31T06:02:31;101970.19;;;9.36;100.00
10852;BME280;5479;52.046;6.314;2022-10-31T06:05:01;101965.06;;;9.31;100.00
10852;BME280;5479;52.046;6.314;2022-10-31T06:07:32;101964.16;;;9.32;100.00
10852;BME280;5479;52.046;6.314;2022-10-31T06:10:00;101963.84;;;9.41;100.00
10852;BME280;5479;52.046;6.314;2022-10-31T06:12:28;101968.06;;;9.45;100.00
10852;BME280;5479;52.046;6.314;2022-10-31T06:14:57;101968.88;;;9.47;100.00
10852;BME280;5479;52.046;6.314;2022-10-31T06:17:26;101961.41;;;9.58;100.00
10852;BME280;5479;52.046;6.314;2022-10-31T06:19:54;101971.88;;;9.61;100.00
10852;BME280;5479;52.046;6.314;2022-10-31T06:22:22;101966.50;;;9.64;100.00
10852;BME280;5479;52.046;6.314;2022-10-31T06:24:49;101964.66;;;9.66;100.00
10852;BME280;5479;52.046;6.314;2022-10-31T06:27:19;101961.31;;;9.61;100.00
10852;BME280;5479;52.046;6.314;2022-10-31T06:29:47;101969.44;;;9.57;100.00
10852;BME280;5479;52.046;6.314;2022-10-31T06:32:15;101967.16;;;9.46;100.00
10852;BME280;5479;52.046;6.314;2022-10-31T06:34:47;101971.38;;;9.27;100.00
10852;BME280;5479;52.046;6.314;2022-10-31T06:37:15;101972.63;;;9.17;100.00
10852;BME280;5479;52.046;6.314;2022-10-31T06:39:43;101967.38;;;9.16;100.00
10852;BME280;5479;52.046;6.314;2022-10-31T06:42:11;101973.44;;;9.19;100.00
10852;BME280;5479;52.046;6.314;2022-10-31T06:44:39;101968.91;;;9.23;100.00
10852;BME280;5479;52.046;6.314;2022-10-31T06:47:09;101980.31;;;9.23;100.00
10852;BME280;5479;52.046;6.314;2022-10-31T06:49:37;101979.53;;;9.21;100.00
10852;BME280;5479;52.046;6.314;2022-10-31T06:52:07;101979.41;;;9.24;100.00
10852;BME280;5479;52.046;6.314;2022-10-31T06:54:35;101971.22;;;9.32;100.00
10852;BME280;5479;52.046;6.314;2022-10-31T06:57:03;101969.13;;;9.41;100.00
10852;BME280;5479;52.046;6.314;2022-10-31T06:59:31;101970.72;;;9.45;100.00
10852;BME280;5479;52.046;6.314;2022-10-31T07:01:58;101971.38;;;9.52;100.00
10852;BME280;5479;52.046;6.314;2022-10-31T07:04:26;101975.59;;;9.57;100.00
10852;BME280;5479;52.046;6.314;2022-10-31T07:06:54;101976.84;;;9.70;100.00
10852;BME280;5479;52.046;6.314;2022-10-31T07:09:24;101979.50;;;9.70;100.00
10852;BME280;5479;52.046;6.314;2022-10-31T07:11:52;101979.22;;;9.78;100.00
10852;BME280;5479;52.046;6.314;2022-10-31T07:14:20;101981.56;;;9.86;100.00
10852;BME280;5479;52.046;6.314;2022-10-31T07:16:49;101981.56;;;9.86;100.00
10852;BME280;5479;52.046;6.314;2022-10-31T07:19:18;101974.31;;;9.91;100.00
10852;BME280;5479;52.046;6.314;2022-10-31T07:21:46;101978.22;;;10.04;100.00
10852;BME280;5479;52.046;6.314;2022-10-31T07:24:14;101985.63;;;10.19;100.00
10852;BME280;5479;52.046;6.314;2022-10-31T07:26:43;101981.44;;;10.35;100.00
10852;BME280;5479;52.046;6.314;2022-10-31T07:29:13;101991.06;;;10.59;100.00
10852;BME280;5479;52.046;6.314;2022-10-31T07:31:41;101989.84;;;10.88;100.00
10852;BME280;5479;52.046;6.314;2022-10-31T07:34:10;101988.63;;;11.17;100.00
10852;BME280;5479;52.046;6.314;2022-10-31T07:36:38;101984.03;;;11.61;100.00
10852;BME280;5479;52.046;6.314;2022-10-31T07:39:06;101986.13;;;12.12;100.00
10852;BME280;5479;52.046;6.314;2022-10-31T07:41:34;101988.72;;;12.67;100.00
10852;BME280;5479;52.046;6.314;2022-10-31T07:44:04;101984.56;;;13.15;100.00
10852;BME280;5479;52.046;6.314;2022-10-31T07:46:31;101981.91;;;13.65;100.00
10852;BME280;5479;52.046;6.314;2022-10-31T07:48:59;101970.50;;;14.11;100.00
10852;BME280;5479;52.046;6.314;2022-10-31T07:51:27;101963.31;;;14.44;100.00
10852;BME280;5479;52.046;6.314;2022-10-31T07:53:55;101955.25;;;14.76;100.00
10852;BME280;5479;52.046;6.314;2022-10-31T07:56:24;101963.28;;;15.05;100.00
10852;BME280;5479;52.046;6.314;2022-10-31T07:58:52;101961.47;;;15.06;100.00
10852;BME280;5479;52.046;6.314;2022-10-31T08:01:22;101967.69;;;14.91;100.00
10852;BME280;5479;52.046;6.314;2022-10-31T08:03:51;101964.34;;;14.87;100.00
10852;BME280;5479;52.046;6.314;2022-10-31T08:06:19;101963.78;;;14.67;100.00
10852;BME280;5479;52.046;6.314;2022-10-31T08:08:47;101963.09;;;14.16;100.00
10852;BME280;5479;52.046;6.314;2022-10-31T08:11:15;101965.16;;;13.96;100.00
10852;BME280;5479;52.046;6.314;2022-10-31T08:13:42;101966.53;;;14.18;100.00
10852;BME280;5479;52.046;6.314;2022-10-31T08:16:10;101964.00;;;14.32;100.00
10852;BME280;5479;52.046;6.314;2022-10-31T08:18:40;101964.31;;;14.26;100.00
10852;BME280;5479;52.046;6.314;2022-10-31T08:21:08;101971.56;;;14.40;100.00
10852;BME280;5479;52.046;6.314;2022-10-31T08:23:38;101974.81;;;14.45;100.00
10852;BME280;5479;52.046;6.314;2022-10-31T08:26:06;101970.84;;;14.68;100.00
10852;BME280;5479;52.046;6.314;2022-10-31T08:28:34;101974.66;;;14.32;100.00
10852;BME280;5479;52.046;6.314;2022-10-31T08:31:02;101971.25;;;14.13;100.00
10852;BME280;5479;52.046;6.314;2022-10-31T08:33:33;101975.31;;;14.20;100.00
10852;BME280;5479;52.046;6.314;2022-10-31T08:36:02;101968.63;;;14.60;100.00
10852;BME280;5479;52.046;6.314;2022-10-31T08:38:30;101972.94;;;14.63;100.00
10852;BME280;5479;52.046;6.314;2022-10-31T08:40:58;101973.53;;;14.52;100.00
10852;BME280;5479;52.046;6.314;2022-10-31T08:43:26;101970.00;;;14.52;100.00
10852;BME280;5479;52.046;6.314;2022-10-31T08:45:54;101963.63;;;14.70;100.00
10852;BME280;5479;52.046;6.314;2022-10-31T08:48:22;101959.56;;;15.22;100.00
10852;BME280;5479;52.046;6.314;2022-10-31T08:50:51;101953.72;;;16.02;100.00
10852;BME280;5479;52.046;6.314;2022-10-31T08:53:26;101957.53;;;15.98;100.00
10852;BME280;5479;52.046;6.314;2022-10-31T08:55:55;101955.91;;;16.09;100.00
10852;BME280;5479;52.046;6.314;2022-10-31T08:58:25;101959.75;;;16.32;100.00
10852;BME280;5479;52.046;6.314;2022-10-31T09:00:54;101945.47;;;16.19;100.00
10852;BME280;5479;52.046;6.314;2022-10-31T09:03:24;101953.53;;;16.05;100.00
10852;BME280;5479;52.046;6.314;2022-10-31T09:05:57;101949.56;;;16.24;100.00
10852;BME280;5479;52.046;6.314;2022-10-31T09:08:30;101950.03;;;15.90;100.00
10852;BME280;5479;52.046;6.314;2022-10-31T09:10:58;101949.16;;;15.90;100.00
10852;BME280;5479;52.046;6.314;2022-10-31T09:13:28;101944.59;;;15.78;100.00
10852;BME280;5479;52.046;6.314;2022-10-31T09:15:56;101946.25;;;16.21;100.00
10852;BME280;5479;52.046;6.314;2022-10-31T09:18:25;101949.53;;;16.53;100.00
10852;BME280;5479;52.046;6.314;2022-10-31T09:20:57;101940.16;;;16.72;100.00
10852;BME280;5479;52.046;6.314;2022-10-31T09:23:27;101930.66;;;17.33;100.00
10852;BME280;5479;52.046;6.314;2022-10-31T09:25:55;101933.19;;;17.85;100.00
10852;BME280;5479;52.046;6.314;2022-10-31T09:28:23;101921.88;;;18.41;100.00
10852;BME280;5479;52.046;6.314;2022-10-31T09:30:55;101919.78;;;19.27;100.00
10852;BME280;5479;52.046;6.314;2022-10-31T09:33:23;101918.59;;;19.53;100.00
10852;BME280;5479;52.046;6.314;2022-10-31T09:35:50;101927.66;;;18.72;100.00
10852;BME280;5479;52.046;6.314;2022-10-31T09:38:20;101921.88;;;18.41;100.00
10852;BME280;5479;52.046;6.314;2022-10-31T09:40:55;101911.22;;;18.29;100.00
10852;BME280;5479;52.046;6.314;2022-10-31T09:43:35;101911.47;;;18.84;100.00
10852;BME280;5479;52.046;6.314;2022-10-31T09:46:11;101917.44;;;18.77;100.00
10852;BME280;5479;52.046;6.314;2022-10-31T09:48:59;101920.22;;;19.45;100.00
10852;BME280;5479;52.046;6.314;2022-10-31T09:51:32;101918.88;;;21.01;100.00
10852;BME280;5479;52.046;6.314;2022-10-31T09:54:05;101906.47;;;21.30;93.36
10852;BME280;5479;52.046;6.314;2022-10-31T09:56:38;101892.97;;;20.36;99.21
10852;BME280;5479;52.046;6.314;2022-10-31T09:59:11;101884.75;;;20.06;98.63
10852;BME280;5479;52.046;6.314;2022-10-31T10:01:45;101865.69;;;19.09;100.00
10852;BME280;5479;52.046;6.314;2022-10-31T10:04:31;101866.72;;;18.02;100.00
10852;BME280;5479;52.046;6.314;2022-10-31T10:07:10;101877.31;;;17.55;100.00
10852;BME280;5479;52.046;6.314;2022-10-31T10:09:39;101880.41;;;17.62;100.00
10852;BME280;5479;52.046;6.314;2022-10-31T10:12:18;101863.19;;;17.53;100.00
10852;BME280;5479;52.046;6.314;2022-10-31T10:14:56;101882.31;;;17.47;100.00
10852;BME280;5479;52.046;6.314;2022-10-31T10:17:37;101887.69;;;17.47;100.00
10852;BME280;5479;52.046;6.314;2022-10-31T10:20:16;101892.06;;;17.10;100.00
10852;BME280;5479;52.046;6.314;2022-10-31T10:22:54;101886.06;;;16.81;100.00
10852;BME280;5479;52.046;6.314;2022-10-31T10:25:30;101868.81;;;16.85;100.00
10852;BME280;5479;52.046;6.314;2022-10-31T10:28:11;101866.72;;;17.03;100.00
10852;BME280;5479;52.046;6.314;2022-10-31T10:30:46;101876.88;;;17.11;100.00
10852;BME280;5479;52.046;6.314;2022-10-31T10:33:18;101875.16;;;17.10;100.00
10852;BME280;5479;52.046;6.314;2022-10-31T10:35:50;101864.91;;;17.16;100.00
10852;BME280;5479;52.046;6.314;2022-10-31T10:38:23;101853.84;;;17.21;100.00
10852;BME280;5479;52.046;6.314;2022-10-31T10:40:53;101859.34;;;17.19;100.00
10852;BME280;5479;52.046;6.314;2022-10-31T10:43:26;101853.97;;;17.32;100.00
10852;BME280;5479;52.046;6.314;2022-10-31T10:46:13;101854.19;;;17.16;100.00
10852;BME280;5479;52.046;6.314;2022-10-31T10:49:10;101847.66;;;17.33;100.00
10852;BME280;5479;52.046;6.314;2022-10-31T10:51:44;101846.88;;;17.43;100.00
10852;BME280;5479;52.046;6.314;2022-10-31T10:54:34;101835.63;;;17.51;100.00
10852;BME280;5479;52.046;6.314;2022-10-31T10:57:13;101835.97;;;17.59;100.00
10852;BME280;5479;52.046;6.314;2022-10-31T10:59:46;101826.72;;;17.63;100.00
10852;BME280;5479;52.046;6.314;2022-10-31T11:02:17;101832.75;;;17.54;100.00
10852;BME280;5479;52.046;6.314;2022-10-31T11:04:48;101836.19;;;17.43;100.00
10852;BME280;5479;52.046;6.314;2022-10-31T11:07:17;101830.38;;;17.37;100.00
10852;BME280;5479;52.046;6.314;2022-10-31T11:09:45;101829.56;;;17.24;100.00
10852;BME280;5479;52.046;6.314;2022-10-31T11:12:20;101826.22;;;17.20;100.00
10852;BME280;5479;52.046;6.314;2022-10-31T11:14:53;101808.78;;;17.27;100.00
10852;BME280;5479;52.046;6.314;2022-10-31T11:17:28;101800.41;;;17.57;100.00
10852;BME280;5479;52.046;6.314;2022-10-31T11:20:01;101790.28;;;18.21;100.00
10852;BME280;5479;52.046;6.314;2022-10-31T11:22:31;101798.34;;;18.32;100.00
10852;BME280;5479;52.046;6.314;2022-10-31T11:24:59;101789.25;;;18.80;100.00
10852;BME280;5479;52.046;6.314;2022-10-31T11:27:27;101774.72;;;18.37;100.00
10852;BME280;5479;52.046;6.314;2022-10-31T11:30:05;101773.56;;;17.93;100.00
10852;BME280;5479;52.046;6.314;2022-10-31T11:32:34;101761.00;;;18.18;100.00
10852;BME280;5479;52.046;6.314;2022-10-31T11:35:07;101752.88;;;18.30;100.00
10852;BME280;5479;52.046;6.314;2022-10-31T11:37:42;101748.53;;;18.40;100.00
10852;BME280;5479;52.046;6.314;2022-10-31T11:40:16;101732.50;;;18.62;100.00
10852;BME280;5479;52.046;6.314;2022-10-31T11:42:45;101726.47;;;18.37;100.00
10852;BME280;5479;52.046;6.314;2022-10-31T11:45:17;101726.00;;;18.08;100.00
10852;BME280;5479;52.046;6.314;2022-10-31T11:47:49;101714.66;;;18.04;100.00
10852;BME280;5479;52.046;6.314;2022-10-31T11:50:20;101721.53;;;18.20;100.00
10852;BME280;5479;52.046;6.314;2022-10-31T11:52:51;101723.75;;;18.26;100.00
10852;BME280;5479;52.046;6.314;2022-10-31T11:55:31;101724.16;;;18.32;100.00
10852;BME280;5479;52.046;6.314;2022-10-31T11:57:59;101712.50;;;18.55;100.00
10852;BME280;5479;52.046;6.314;2022-10-31T12:00:31;101712.13;;;18.60;100.00
10852;BME280;5479;52.046;6.314;2022-10-31T12:03:15;101718.25;;;18.95;100.00
10852;BME280;5479;52.046;6.314;2022-10-31T12:05:52;101707.59;;;19.49;100.00
10852;BME280;5479;52.046;6.314;2022-10-31T12:08:26;101700.09;;;18.99;100.00
10852;BME280;5479;52.046;6.314;2022-10-31T12:11:02;101704.69;;;18.52;100.00
10852;BME280;5479;52.046;6.314;2022-10-31T12:13:36;101704.03;;;18.38;100.00
10852;BME280;5479;52.046;6.314;2022-10-31T12:16:27;101704.88;;;18.38;100.00
10852;BME280;5479;52.046;6.314;2022-10-31T12:18:59;101697.53;;;18.64;100.00
10852;BME280;5479;52.046;6.314;2022-10-31T12:21:48;101695.09;;;18.83;100.00
10852;BME280;5479;52.046;6.314;2022-10-31T12:24:27;101683.88;;;18.67;100.00
10852;BME280;5479;52.046;6.314;2022-10-31T12:27:08;101679.16;;;18.47;100.00
10852;BME280;5479;52.046;6.314;2022-10-31T12:29:56;101666.25;;;18.30;100.00
10852;BME280;5479;52.046;6.314;2022-10-31T12:32:38;101651.03;;;17.95;100.00
10852;BME280;5479;52.046;6.314;2022-10-31T12:35:22;101648.41;;;17.72;100.00
10852;BME280;5479;52.046;6.314;2022-10-31T12:38:07;101657.69;;;17.55;100.00
10852;BME280;5479;52.046;6.314;2022-10-31T12:40:51;101652.00;;;17.60;100.00
10852;BME280;5479;52.046;6.314;2022-10-31T12:43:35;101641.22;;;17.72;100.00
10852;BME280;5479;52.046;6.314;2022-10-31T12:46:07;101630.50;;;17.72;100.00
10852;BME280;5479;52.046;6.314;2022-10-31T12:49:03;101622.31;;;17.63;100.00
10852;BME280;5479;52.046;6.314;2022-10-31T12:51:44;101611.97;;;17.69;100.00
10852;BME280;5479;52.046;6.314;2022-10-31T12:54:25;101609.06;;;17.72;100.00
10852;BME280;5479;52.046;6.314;2022-10-31T12:57:03;101598.72;;;18.14;100.00
10852;BME280;5479;52.046;6.314;2022-10-31T12:59:35;101592.97;;;18.18;100.00
10852;BME280;5479;52.046;6.314;2022-10-31T13:02:15;101585.81;;;18.30;100.00
10852;BME280;5479;52.046;6.314;2022-10-31T13:04:48;101577.88;;;18.28;100.00
10852;BME280;5479;52.046;6.314;2022-10-31T13:07:20;101561.28;;;18.12;100.00
10852;BME280;5479;52.046;6.314;2022-10-31T13:09:55;101571.06;;;18.24;100.00
10852;BME280;5479;52.046;6.314;2022-10-31T13:12:26;101570.19;;;18.24;100.00
10852;BME280;5479;52.046;6.314;2022-10-31T13:14:58;101566.28;;;18.39;100.00
10852;BME280;5479;52.046;6.314;2022-10-31T13:17:30;101547.75;;;18.36;100.00
10852;BME280;5479;52.046;6.314;2022-10-31T13:20:21;101553.13;;;18.36;100.00